sensor_id;sensor_type;location;lat;lon;timestamp;P1;durP1;ratioP1;P2;durP2;ratioP2
45392;SDS011;31129;44.810;10.334;2023-05-07T00:00:44;5.38;;;1.35;;
45392;SDS011;31129;44.810;10.334;2023-05-07T00:03:09;1.63;;;1.50;;
45392;SDS011;31129;44.810;10.334;2023-05-07T00:05:36;3.55;;;1.27;;
45392;SDS011;31129;44.810;10.334;2023-05-07T00:08:03;1.73;;;1.35;;
45392;SDS011;31129;44.810;10.334;2023-05-07T00:10:28;1.50;;;1.40;;
45392;SDS011;31129;44.810;10.334;2023-05-07T00:12:54;2.53;;;1.70;;
45392;SDS011;31129;44.810;10.334;2023-05-07T00:15:19;4.18;;;1.70;;
45392;SDS011;31129;44.810;10.334;2023-05-07T00:17:48;6.90;;;5.43;;
45392;SDS011;31129;44.810;10.334;2023-05-07T00:20:13;11.73;;;8.13;;
45392;SDS011;31129;44.810;10.334;2023-05-07T00:22:42;12.25;;;10.63;;
45392;SDS011;31129;44.810;10.334;2023-05-07T00:25:08;15.05;;;11.40;;
45392;SDS011;31129;44.810;10.334;2023-05-07T00:27:36;17.83;;;12.90;;
45392;SDS011;31129;44.810;10.334;2023-05-07T00:30:02;15.73;;;12.95;;
45392;SDS011;31129;44.810;10.334;2023-05-07T00:32:30;25.63;;;16.33;;
45392;SDS011;31129;44.810;10.334;2023-05-07T00:35:01;22.60;;;17.70;;
45392;SDS011;31129;44.810;10.334;2023-05-07T00:37:53;23.35;;;17.70;;
45392;SDS011;31129;44.810;10.334;2023-05-07T00:40:21;24.77;;;17.60;;
45392;SDS011;31129;44.810;10.334;2023-05-07T00:42:48;21.10;;;18.85;;
45392;SDS011;31129;44.810;10.334;2023-05-07T00:45:16;23.48;;;18.55;;
45392;SDS011;31129;44.810;10.334;2023-05-07T00:47:42;25.75;;;20.80;;
45392;SDS011;31129;44.810;10.334;2023-05-07T00:50:16;26.83;;;20.02;;
45392;SDS011;31129;44.810;10.334;2023-05-07T00:52:45;30.27;;;22.35;;
45392;SDS011;31129;44.810;10.334;2023-05-07T00:55:11;27.58;;;22.08;;
45392;SDS011;31129;44.810;10.334;2023-05-07T00:57:39;28.80;;;23.55;;
45392;SDS011;31129;44.810;10.334;2023-05-07T01:00:11;26.33;;;22.80;;
45392;SDS011;31129;44.810;10.334;2023-05-07T01:05:10;29.92;;;23.70;;
45392;SDS011;31129;44.810;10.334;2023-05-07T01:07:39;32.95;;;24.75;;
45392;SDS011;31129;44.810;10.334;2023-05-07T01:10:07;30.95;;;25.17;;
45392;SDS011;31129;44.810;10.334;2023-05-07T01:12:38;29.67;;;24.25;;
45392;SDS011;31129;44.810;10.334;2023-05-07T01:15:05;30.70;;;25.30;;
45392;SDS011;31129;44.810;10.334;2023-05-07T01:17:35;31.38;;;24.38;;
45392;SDS011;31129;44.810;10.334;2023-05-07T01:20:30;31.08;;;24.23;;
45392;SDS011;31129;44.810;10.334;2023-05-07T01:22:56;33.72;;;25.33;;
45392;SDS011;31129;44.810;10.334;2023-05-07T01:25:25;32.70;;;26.65;;
45392;SDS011;31129;44.810;10.334;2023-05-07T01:27:55;29.80;;;24.08;;
45392;SDS011;31129;44.810;10.334;2023-05-07T01:30:25;33.22;;;26.40;;
45392;SDS011;31129;44.810;10.334;2023-05-07T01:32:53;33.55;;;26.33;;
45392;SDS011;31129;44.810;10.334;2023-05-07T01:35:29;30.80;;;26.58;;
45392;SDS011;31129;44.810;10.334;2023-05-07T01:38:02;31.73;;;26.35;;
45392;SDS011;31129;44.810;10.334;2023-05-07T01:40:29;33.95;;;27.10;;
45392;SDS011;31129;44.810;10.334;2023-05-07T01:43:03;29.27;;;25.50;;
45392;SDS011;31129;44.810;10.334;2023-05-07T01:45:39;30.80;;;25.80;;
45392;SDS011;31129;44.810;10.334;2023-05-07T01:48:06;31.55;;;27.48;;
45392;SDS011;31129;44.810;10.334;2023-05-07T01:50:41;38.25;;;27.02;;
45392;SDS011;31129;44.810;10.334;2023-05-07T01:53:14;32.33;;;27.38;;
45392;SDS011;31129;44.810;10.334;2023-05-07T01:55:43;32.58;;;28.10;;
45392;SDS011;31129;44.810;10.334;2023-05-07T01:58:10;33.67;;;26.60;;
45392;SDS011;31129;44.810;10.334;2023-05-07T02:00:36;31.05;;;26.05;;
45392;SDS011;31129;44.810;10.334;2023-05-07T02:03:01;31.33;;;26.35;;
45392;SDS011;31129;44.810;10.334;2023-05-07T02:05:38;32.17;;;26.77;;
45392;SDS011;31129;44.810;10.334;2023-05-07T02:08:26;32.20;;;26.85;;
45392;SDS011;31129;44.810;10.334;2023-05-07T02:10:52;33.58;;;26.70;;
45392;SDS011;31129;44.810;10.334;2023-05-07T02:13:19;35.97;;;27.73;;
45392;SDS011;31129;44.810;10.334;2023-05-07T02:15:45;38.38;;;27.90;;
45392;SDS011;31129;44.810;10.334;2023-05-07T02:18:15;31.48;;;27.20;;
45392;SDS011;31129;44.810;10.334;2023-05-07T02:20:42;32.53;;;28.23;;
45392;SDS011;31129;44.810;10.334;2023-05-07T02:23:08;32.40;;;28.30;;
45392;SDS011;31129;44.810;10.334;2023-05-07T02:25:33;32.15;;;27.02;;
45392;SDS011;31129;44.810;10.334;2023-05-07T02:27:59;33.50;;;27.52;;
45392;SDS011;31129;44.810;10.334;2023-05-07T02:30:51;33.72;;;26.55;;
45392;SDS011;31129;44.810;10.334;2023-05-07T02:33:17;36.17;;;27.30;;
45392;SDS011;31129;44.810;10.334;2023-05-07T02:35:42;33.30;;;25.02;;
45392;SDS011;31129;44.810;10.334;2023-05-07T02:38:10;29.80;;;25.98;;
45392;SDS011;31129;44.810;10.334;2023-05-07T02:40:37;20.43;;;18.30;;
45392;SDS011;31129;44.810;10.334;2023-05-07T02:43:05;10.85;;;7.38;;
45392;SDS011;31129;44.810;10.334;2023-05-07T02:45:31;10.32;;;8.00;;
45392;SDS011;31129;44.810;10.334;2023-05-07T02:47:58;12.55;;;7.80;;
45392;SDS011;31129;44.810;10.334;2023-05-07T02:50:24;11.07;;;6.28;;
45392;SDS011;31129;44.810;10.334;2023-05-07T02:52:50;4.80;;;3.58;;
45392;SDS011;31129;44.810;10.334;2023-05-07T02:55:16;4.68;;;2.40;;
45392;SDS011;31129;44.810;10.334;2023-05-07T02:57:42;5.13;;;2.47;;
45392;SDS011;31129;44.810;10.334;2023-05-07T03:00:14;9.60;;;3.63;;
45392;SDS011;31129;44.810;10.334;2023-05-07T03:02:48;5.35;;;3.22;;
45392;SDS011;31129;44.810;10.334;2023-05-07T03:05:13;4.90;;;3.30;;
45392;SDS011;31129;44.810;10.334;2023-05-07T03:07:39;3.53;;;3.22;;
45392;SDS011;31129;44.810;10.334;2023-05-07T03:10:06;4.82;;;3.10;;
45392;SDS011;31129;44.810;10.334;2023-05-07T03:12:31;4.20;;;3.45;;
45392;SDS011;31129;44.810;10.334;2023-05-07T03:14:57;4.70;;;3.60;;
45392;SDS011;31129;44.810;10.334;2023-05-07T03:17:23;7.88;;;4.07;;
45392;SDS011;31129;44.810;10.334;2023-05-07T03:19:49;5.75;;;4.00;;
45392;SDS011;31129;44.810;10.334;2023-05-07T03:22:14;4.70;;;4.03;;
45392;SDS011;31129;44.810;10.334;2023-05-07T03:24:40;7.25;;;4.68;;
45392;SDS011;31129;44.810;10.334;2023-05-07T03:27:06;8.60;;;5.25;;
45392;SDS011;31129;44.810;10.334;2023-05-07T03:29:35;5.35;;;4.85;;
45392;SDS011;31129;44.810;10.334;2023-05-07T03:32:00;8.07;;;5.00;;
45392;SDS011;31129;44.810;10.334;2023-05-07T03:34:26;6.55;;;5.30;;
45392;SDS011;31129;44.810;10.334;2023-05-07T03:36:52;7.57;;;5.03;;
45392;SDS011;31129;44.810;10.334;2023-05-07T03:39:19;8.07;;;5.32;;
45392;SDS011;31129;44.810;10.334;2023-05-07T03:41:44;11.73;;;6.28;;
45392;SDS011;31129;44.810;10.334;2023-05-07T03:44:10;14.35;;;5.85;;
45392;SDS011;31129;44.810;10.334;2023-05-07T03:46:35;10.38;;;6.55;;
45392;SDS011;31129;44.810;10.334;2023-05-07T03:49:04;8.23;;;5.95;;
45392;SDS011;31129;44.810;10.334;2023-05-07T03:51:30;10.18;;;6.07;;
45392;SDS011;31129;44.810;10.334;2023-05-07T03:53:55;6.45;;;5.57;;
45392;SDS011;31129;44.810;10.334;2023-05-07T03:56:23;10.17;;;6.03;;
45392;SDS011;31129;44.810;10.334;2023-05-07T03:58:53;8.88;;;6.05;;
45392;SDS011;31129;44.810;10.334;2023-05-07T04:01:19;12.63;;;6.43;;
45392;SDS011;31129;44.810;10.334;2023-05-07T04:03:45;7.90;;;5.93;;
45392;SDS011;31129;44.810;10.334;2023-05-07T04:06:11;7.13;;;5.18;;
45392;SDS011;31129;44.810;10.334;2023-05-07T04:08:37;7.65;;;5.70;;
45392;SDS011;31129;44.810;10.334;2023-05-07T04:11:04;9.35;;;5.10;;
45392;SDS011;31129;44.810;10.334;2023-05-07T04:13:32;6.65;;;4.60;;
45392;SDS011;31129;44.810;10.334;2023-05-07T04:16:00;8.85;;;4.70;;
45392;SDS011;31129;44.810;10.334;2023-05-07T04:18:27;4.93;;;3.80;;
45392;SDS011;31129;44.810;10.334;2023-05-07T04:20:53;6.18;;;4.30;;
45392;SDS011;31129;44.810;10.334;2023-05-07T04:23:20;3.97;;;3.60;;
45392;SDS011;31129;44.810;10.334;2023-05-07T04:25:45;4.45;;;3.80;;
45392;SDS011;31129;44.810;10.334;2023-05-07T04:28:20;4.55;;;3.20;;
45392;SDS011;31129;44.810;10.334;2023-05-07T04:30:46;5.95;;;3.60;;
45392;SDS011;31129;44.810;10.334;2023-05-07T04:33:15;11.30;;;3.90;;
45392;SDS011;31129;44.810;10.334;2023-05-07T04:35:44;5.82;;;3.30;;
45392;SDS011;31129;44.810;10.334;2023-05-07T04:38:15;6.68;;;3.15;;
45392;SDS011;31129;44.810;10.334;2023-05-07T04:40:41;5.80;;;3.50;;
45392;SDS011;31129;44.810;10.334;2023-05-07T04:43:10;3.85;;;3.13;;
45392;SDS011;31129;44.810;10.334;2023-05-07T04:45:43;6.03;;;3.40;;
45392;SDS011;31129;44.810;10.334;2023-05-07T04:48:09;4.05;;;3.10;;
45392;SDS011;31129;44.810;10.334;2023-05-07T04:50:37;4.07;;;3.20;;
45392;SDS011;31129;44.810;10.334;2023-05-07T04:53:03;5.40;;;3.25;;
45392;SDS011;31129;44.810;10.334;2023-05-07T04:55:29;4.57;;;3.33;;
45392;SDS011;31129;44.810;10.334;2023-05-07T04:57:54;4.25;;;3.15;;
45392;SDS011;31129;44.810;10.334;2023-05-07T05:00:20;5.97;;;3.45;;
45392;SDS011;31129;44.810;10.334;2023-05-07T05:02:48;6.32;;;3.60;;
45392;SDS011;31129;44.810;10.334;2023-05-07T05:05:17;4.75;;;3.55;;
45392;SDS011;31129;44.810;10.334;2023-05-07T05:07:44;6.28;;;3.60;;
45392;SDS011;31129;44.810;10.334;2023-05-07T05:10:10;6.15;;;4.13;;
45392;SDS011;31129;44.810;10.334;2023-05-07T05:12:50;8.15;;;4.80;;
45392;SDS011;31129;44.810;10.334;2023-05-07T05:15:22;7.40;;;5.30;;
45392;SDS011;31129;44.810;10.334;2023-05-07T05:17:49;10.70;;;5.70;;
45392;SDS011;31129;44.810;10.334;2023-05-07T05:20:18;8.80;;;6.68;;
45392;SDS011;31129;44.810;10.334;2023-05-07T05:22:47;9.52;;;7.18;;
45392;SDS011;31129;44.810;10.334;2023-05-07T05:25:21;11.63;;;7.55;;
45392;SDS011;31129;44.810;10.334;2023-05-07T05:27:52;9.70;;;6.95;;
45392;SDS011;31129;44.810;10.334;2023-05-07T05:30:18;9.45;;;7.75;;
45392;SDS011;31129;44.810;10.334;2023-05-07T05:32:45;13.15;;;8.45;;
45392;SDS011;31129;44.810;10.334;2023-05-07T05:35:14;11.27;;;8.35;;
45392;SDS011;31129;44.810;10.334;2023-05-07T05:37:40;14.73;;;9.80;;
45392;SDS011;31129;44.810;10.334;2023-05-07T05:40:07;19.83;;;12.25;;
45392;SDS011;31129;44.810;10.334;2023-05-07T05:42:33;15.27;;;11.18;;
45392;SDS011;31129;44.810;10.334;2023-05-07T05:44:59;12.90;;;10.57;;
45392;SDS011;31129;44.810;10.334;2023-05-07T05:47:25;13.90;;;11.02;;
45392;SDS011;31129;44.810;10.334;2023-05-07T05:49:54;13.43;;;10.05;;
45392;SDS011;31129;44.810;10.334;2023-05-07T05:52:20;15.18;;;11.38;;
45392;SDS011;31129;44.810;10.334;2023-05-07T05:54:48;18.48;;;10.88;;
45392;SDS011;31129;44.810;10.334;2023-05-07T05:57:15;17.63;;;11.95;;
45392;SDS011;31129;44.810;10.334;2023-05-07T05:59:41;14.50;;;11.15;;
45392;SDS011;31129;44.810;10.334;2023-05-07T06:02:07;13.52;;;11.85;;
45392;SDS011;31129;44.810;10.334;2023-05-07T06:04:33;18.55;;;13.20;;
45392;SDS011;31129;44.810;10.334;2023-05-07T06:06:59;19.40;;;14.68;;
45392;SDS011;31129;44.810;10.334;2023-05-07T06:09:25;16.67;;;12.77;;
45392;SDS011;31129;44.810;10.334;2023-05-07T06:11:50;22.02;;;13.95;;
45392;SDS011;31129;44.810;10.334;2023-05-07T06:14:16;14.77;;;13.25;;
45392;SDS011;31129;44.810;10.334;2023-05-07T06:16:42;19.17;;;14.10;;
45392;SDS011;31129;44.810;10.334;2023-05-07T06:19:08;20.95;;;14.18;;
45392;SDS011;31129;44.810;10.334;2023-05-07T06:21:33;18.58;;;14.40;;
45392;SDS011;31129;44.810;10.334;2023-05-07T06:23:59;19.50;;;15.07;;
45392;SDS011;31129;44.810;10.334;2023-05-07T06:26:27;18.52;;;15.18;;
45392;SDS011;31129;44.810;10.334;2023-05-07T06:28:53;19.13;;;15.85;;
45392;SDS011;31129;44.810;10.334;2023-05-07T06:31:19;19.92;;;16.42;;
45392;SDS011;31129;44.810;10.334;2023-05-07T06:33:56;24.52;;;17.52;;
45392;SDS011;31129;44.810;10.334;2023-05-07T06:36:31;24.95;;;17.55;;
45392;SDS011;31129;44.810;10.334;2023-05-07T06:38:59;22.67;;;17.35;;
45392;SDS011;31129;44.810;10.334;2023-05-07T06:41:33;21.75;;;17.17;;
45392;SDS011;31129;44.810;10.334;2023-05-07T06:44:25;22.25;;;17.58;;
45392;SDS011;31129;44.810;10.334;2023-05-07T06:47:03;24.33;;;18.98;;
45392;SDS011;31129;44.810;10.334;2023-05-07T06:49:33;21.33;;;18.33;;
45392;SDS011;31129;44.810;10.334;2023-05-07T06:52:02;23.75;;;18.42;;
45392;SDS011;31129;44.810;10.334;2023-05-07T06:54:31;23.73;;;19.63;;
45392;SDS011;31129;44.810;10.334;2023-05-07T06:56:57;23.95;;;19.45;;
45392;SDS011;31129;44.810;10.334;2023-05-07T06:59:47;25.05;;;20.90;;
45392;SDS011;31129;44.810;10.334;2023-05-07T07:02:13;28.67;;;21.38;;
45392;SDS011;31129;44.810;10.334;2023-05-07T07:04:53;29.27;;;21.17;;
45392;SDS011;31129;44.810;10.334;2023-05-07T07:07:25;28.27;;;20.75;;
45392;SDS011;31129;44.810;10.334;2023-05-07T07:09:50;27.42;;;21.42;;
45392;SDS011;31129;44.810;10.334;2023-05-07T07:12:18;33.65;;;21.83;;
45392;SDS011;31129;44.810;10.334;2023-05-07T07:15:02;29.38;;;20.75;;
45392;SDS011;31129;44.810;10.334;2023-05-07T07:17:28;29.27;;;22.38;;
45392;SDS011;31129;44.810;10.334;2023-05-07T07:19:54;24.25;;;20.55;;
45392;SDS011;31129;44.810;10.334;2023-05-07T07:22:20;28.52;;;20.10;;
45392;SDS011;31129;44.810;10.334;2023-05-07T07:24:46;30.48;;;20.60;;
45392;SDS011;31129;44.810;10.334;2023-05-07T07:27:14;28.35;;;20.02;;
45392;SDS011;31129;44.810;10.334;2023-05-07T07:29:45;23.90;;;18.83;;
45392;SDS011;31129;44.810;10.334;2023-05-07T07:32:11;24.55;;;18.23;;
45392;SDS011;31129;44.810;10.334;2023-05-07T07:34:37;23.70;;;19.80;;
45392;SDS011;31129;44.810;10.334;2023-05-07T07:37:03;20.95;;;17.70;;
45392;SDS011;31129;44.810;10.334;2023-05-07T07:39:32;24.20;;;16.85;;
45392;SDS011;31129;44.810;10.334;2023-05-07T07:41:58;21.70;;;17.73;;
45392;SDS011;31129;44.810;10.334;2023-05-07T07:44:25;19.90;;;16.27;;
45392;SDS011;31129;44.810;10.334;2023-05-07T07:46:56;23.27;;;18.17;;
45392;SDS011;31129;44.810;10.334;2023-05-07T07:49:27;19.25;;;16.23;;
45392;SDS011;31129;44.810;10.334;2023-05-07T07:51:54;21.50;;;16.85;;
45392;SDS011;31129;44.810;10.334;2023-05-07T07:54:20;24.13;;;17.58;;
45392;SDS011;31129;44.810;10.334;2023-05-07T07:56:48;23.13;;;17.05;;
45392;SDS011;31129;44.810;10.334;2023-05-07T07:59:14;21.08;;;16.85;;
45392;SDS011;31129;44.810;10.334;2023-05-07T08:01:45;19.30;;;16.60;;
45392;SDS011;31129;44.810;10.334;2023-05-07T08:06:43;20.55;;;16.45;;
45392;SDS011;31129;44.810;10.334;2023-05-07T08:09:10;20.52;;;16.27;;
45392;SDS011;31129;44.810;10.334;2023-05-07T08:11:37;19.60;;;17.02;;
45392;SDS011;31129;44.810;10.334;2023-05-07T08:14:06;17.73;;;15.82;;
45392;SDS011;31129;44.810;10.334;2023-05-07T08:16:35;21.25;;;15.73;;
45392;SDS011;31129;44.810;10.334;2023-05-07T08:19:06;22.05;;;16.05;;
45392;SDS011;31129;44.810;10.334;2023-05-07T08:21:32;17.95;;;15.00;;
45392;SDS011;31129;44.810;10.334;2023-05-07T08:23:58;19.00;;;15.85;;
45392;SDS011;31129;44.810;10.334;2023-05-07T08:26:24;17.30;;;15.07;;
45392;SDS011;31129;44.810;10.334;2023-05-07T08:28:50;17.60;;;14.00;;
45392;SDS011;31129;44.810;10.334;2023-05-07T08:31:46;20.55;;;14.60;;
45392;SDS011;31129;44.810;10.334;2023-05-07T08:34:12;20.27;;;14.43;;
45392;SDS011;31129;44.810;10.334;2023-05-07T08:36:42;15.20;;;13.57;;
45392;SDS011;31129;44.810;10.334;2023-05-07T08:41:56;17.80;;;10.82;;
45392;SDS011;31129;44.810;10.334;2023-05-07T08:44:41;12.35;;;10.85;;
45392;SDS011;31129;44.810;10.334;2023-05-07T08:47:12;16.52;;;11.10;;
45392;SDS011;31129;44.810;10.334;2023-05-07T08:49:38;13.18;;;10.77;;
45392;SDS011;31129;44.810;10.334;2023-05-07T08:52:06;12.35;;;10.65;;
45392;SDS011;31129;44.810;10.334;2023-05-07T08:54:31;11.77;;;10.25;;
45392;SDS011;31129;44.810;10.334;2023-05-07T08:56:59;16.90;;;9.55;;
45392;SDS011;31129;44.810;10.334;2023-05-07T08:59:26;18.63;;;10.63;;
45392;SDS011;31129;44.810;10.334;2023-05-07T09:01:52;9.55;;;8.57;;
45392;SDS011;31129;44.810;10.334;2023-05-07T09:04:18;9.77;;;8.77;;
45392;SDS011;31129;44.810;10.334;2023-05-07T09:06:44;11.25;;;8.60;;
45392;SDS011;31129;44.810;10.334;2023-05-07T09:09:24;18.85;;;8.88;;
45392;SDS011;31129;44.810;10.334;2023-05-07T09:11:57;11.07;;;8.88;;
45392;SDS011;31129;44.810;10.334;2023-05-07T09:14:27;13.93;;;10.13;;
45392;SDS011;31129;44.810;10.334;2023-05-07T09:16:54;13.37;;;9.40;;
45392;SDS011;31129;44.810;10.334;2023-05-07T09:19:23;12.23;;;9.18;;
45392;SDS011;31129;44.810;10.334;2023-05-07T09:22:00;11.05;;;9.27;;
45392;SDS011;31129;44.810;10.334;2023-05-07T09:24:32;14.05;;;9.07;;
45392;SDS011;31129;44.810;10.334;2023-05-07T09:27:04;11.15;;;9.55;;
45392;SDS011;31129;44.810;10.334;2023-05-07T09:29:31;14.55;;;9.77;;
45392;SDS011;31129;44.810;10.334;2023-05-07T09:32:02;15.85;;;10.70;;
45392;SDS011;31129;44.810;10.334;2023-05-07T09:34:32;12.95;;;10.38;;
45392;SDS011;31129;44.810;10.334;2023-05-07T09:37:03;14.77;;;11.88;;
45392;SDS011;31129;44.810;10.334;2023-05-07T09:39:38;13.93;;;11.02;;
45392;SDS011;31129;44.810;10.334;2023-05-07T09:42:04;17.30;;;10.15;;
45392;SDS011;31129;44.810;10.334;2023-05-07T09:44:34;16.27;;;13.75;;
45392;SDS011;31129;44.810;10.334;2023-05-07T09:47:16;16.33;;;11.38;;
45392;SDS011;31129;44.810;10.334;2023-05-07T09:49:46;16.42;;;11.05;;
45392;SDS011;31129;44.810;10.334;2023-05-07T09:52:13;17.80;;;11.27;;
45392;SDS011;31129;44.810;10.334;2023-05-07T09:54:45;19.23;;;11.90;;
45392;SDS011;31129;44.810;10.334;2023-05-07T09:57:15;15.48;;;10.02;;
45392;SDS011;31129;44.810;10.334;2023-05-07T09:59:45;12.40;;;10.93;;
45392;SDS011;31129;44.810;10.334;2023-05-07T10:02:15;17.83;;;12.63;;
45392;SDS011;31129;44.810;10.334;2023-05-07T10:04:46;17.58;;;12.57;;
45392;SDS011;31129;44.810;10.334;2023-05-07T10:07:17;15.95;;;12.38;;
45392;SDS011;31129;44.810;10.334;2023-05-07T10:09:44;17.95;;;12.95;;
45392;SDS011;31129;44.810;10.334;2023-05-07T10:12:19;16.70;;;11.70;;
45392;SDS011;31129;44.810;10.334;2023-05-07T10:14:49;16.40;;;11.85;;
45392;SDS011;31129;44.810;10.334;2023-05-07T10:17:17;16.73;;;10.43;;
45392;SDS011;31129;44.810;10.334;2023-05-07T10:22:11;16.58;;;13.05;;
45392;SDS011;31129;44.810;10.334;2023-05-07T10:24:43;18.55;;;13.82;;
45392;SDS011;31129;44.810;10.334;2023-05-07T10:27:15;20.63;;;15.00;;
45392;SDS011;31129;44.810;10.334;2023-05-07T10:29:49;21.48;;;14.85;;
45392;SDS011;31129;44.810;10.334;2023-05-07T10:32:40;15.85;;;13.63;;
45392;SDS011;31129;44.810;10.334;2023-05-07T10:35:21;20.17;;;14.60;;
45392;SDS011;31129;44.810;10.334;2023-05-07T10:37:50;17.13;;;14.38;;
45392;SDS011;31129;44.810;10.334;2023-05-07T10:42:59;21.20;;;14.02;;
45392;SDS011;31129;44.810;10.334;2023-05-07T10:45:28;16.23;;;14.45;;
45392;SDS011;31129;44.810;10.334;2023-05-07T10:48:10;20.58;;;13.80;;
45392;SDS011;31129;44.810;10.334;2023-05-07T10:50:38;17.02;;;14.63;;
45392;SDS011;31129;44.810;10.334;2023-05-07T10:58:46;16.45;;;12.60;;
45392;SDS011;31129;44.810;10.334;2023-05-07T11:01:48;14.85;;;12.48;;
45392;SDS011;31129;44.810;10.334;2023-05-07T11:04:20;14.10;;;10.85;;
45392;SDS011;31129;44.810;10.334;2023-05-07T11:07:33;13.48;;;11.70;;
45392;SDS011;31129;44.810;10.334;2023-05-07T11:10:22;13.43;;;10.88;;
45392;SDS011;31129;44.810;10.334;2023-05-07T11:13:17;13.30;;;11.45;;
45392;SDS011;31129;44.810;10.334;2023-05-07T11:15:47;12.88;;;11.10;;
45392;SDS011;31129;44.810;10.334;2023-05-07T11:18:46;16.98;;;11.90;;
45392;SDS011;31129;44.810;10.334;2023-05-07T11:21:39;16.10;;;11.90;;
45392;SDS011;31129;44.810;10.334;2023-05-07T11:24:14;16.00;;;12.65;;
45392;SDS011;31129;44.810;10.334;2023-05-07T11:26:52;17.35;;;14.98;;
45392;SDS011;31129;44.810;10.334;2023-05-07T11:29:20;14.45;;;12.40;;
45392;SDS011;31129;44.810;10.334;2023-05-07T11:31:51;14.02;;;11.85;;
45392;SDS011;31129;44.810;10.334;2023-05-07T11:34:20;16.95;;;10.48;;
45392;SDS011;31129;44.810;10.334;2023-05-07T11:36:47;17.13;;;10.70;;
45392;SDS011;31129;44.810;10.334;2023-05-07T11:39:28;13.75;;;10.68;;
45392;SDS011;31129;44.810;10.334;2023-05-07T11:41:54;12.82;;;9.95;;
45392;SDS011;31129;44.810;10.334;2023-05-07T11:44:20;10.20;;;8.57;;
45392;SDS011;31129;44.810;10.334;2023-05-07T11:46:55;14.80;;;10.27;;
45392;SDS011;31129;44.810;10.334;2023-05-07T11:49:21;11.77;;;10.13;;
45392;SDS011;31129;44.810;10.334;2023-05-07T11:51:51;11.02;;;9.73;;
45392;SDS011;31129;44.810;10.334;2023-05-07T11:54:20;11.48;;;9.40;;
45392;SDS011;31129;44.810;10.334;2023-05-07T11:56:46;10.60;;;7.90;;
45392;SDS011;31129;44.810;10.334;2023-05-07T11:59:12;11.18;;;9.65;;
45392;SDS011;31129;44.810;10.334;2023-05-07T12:01:43;12.60;;;8.13;;
45392;SDS011;31129;44.810;10.334;2023-05-07T12:04:10;9.32;;;7.53;;
45392;SDS011;31129;44.810;10.334;2023-05-07T12:06:36;10.75;;;8.82;;
45392;SDS011;31129;44.810;10.334;2023-05-07T12:09:03;11.90;;;9.17;;
45392;SDS011;31129;44.810;10.334;2023-05-07T12:11:30;17.88;;;11.60;;
45392;SDS011;31129;44.810;10.334;2023-05-07T12:14:01;11.27;;;8.18;;
45392;SDS011;31129;44.810;10.334;2023-05-07T12:16:27;14.25;;;8.13;;
45392;SDS011;31129;44.810;10.334;2023-05-07T12:18:55;10.50;;;8.30;;
45392;SDS011;31129;44.810;10.334;2023-05-07T12:21:24;8.52;;;7.38;;
45392;SDS011;31129;44.810;10.334;2023-05-07T12:23:50;13.98;;;9.85;;
45392;SDS011;31129;44.810;10.334;2023-05-07T12:26:16;12.40;;;8.85;;
45392;SDS011;31129;44.810;10.334;2023-05-07T12:28:42;11.05;;;7.45;;
45392;SDS011;31129;44.810;10.334;2023-05-07T12:31:07;13.65;;;7.55;;
45392;SDS011;31129;44.810;10.334;2023-05-07T12:33:36;12.25;;;10.05;;
45392;SDS011;31129;44.810;10.334;2023-05-07T12:36:07;11.73;;;9.40;;
45392;SDS011;31129;44.810;10.334;2023-05-07T12:38:40;16.05;;;8.57;;
45392;SDS011;31129;44.810;10.334;2023-05-07T12:41:06;12.55;;;7.32;;
45392;SDS011;31129;44.810;10.334;2023-05-07T12:43:43;13.23;;;7.63;;
45392;SDS011;31129;44.810;10.334;2023-05-07T12:46:09;11.63;;;7.47;;
45392;SDS011;31129;44.810;10.334;2023-05-07T12:48:36;9.13;;;7.13;;
45392;SDS011;31129;44.810;10.334;2023-05-07T12:51:03;9.15;;;5.95;;
45392;SDS011;31129;44.810;10.334;2023-05-07T12:53:30;10.13;;;6.68;;
45392;SDS011;31129;44.810;10.334;2023-05-07T12:55:57;8.35;;;6.47;;
45392;SDS011;31129;44.810;10.334;2023-05-07T12:58:28;6.82;;;5.60;;
45392;SDS011;31129;44.810;10.334;2023-05-07T13:00:56;7.43;;;6.13;;
45392;SDS011;31129;44.810;10.334;2023-05-07T13:03:29;7.88;;;7.07;;
45392;SDS011;31129;44.810;10.334;2023-05-07T13:08:32;15.38;;;9.05;;
45392;SDS011;31129;44.810;10.334;2023-05-07T13:11:02;12.20;;;7.88;;
45392;SDS011;31129;44.810;10.334;2023-05-07T13:13:32;10.35;;;7.75;;
45392;SDS011;31129;44.810;10.334;2023-05-07T13:16:00;8.57;;;6.82;;
45392;SDS011;31129;44.810;10.334;2023-05-07T13:18:26;8.82;;;7.93;;
45392;SDS011;31129;44.810;10.334;2023-05-07T13:20:53;8.30;;;6.88;;
45392;SDS011;31129;44.810;10.334;2023-05-07T13:23:19;14.48;;;6.50;;
45392;SDS011;31129;44.810;10.334;2023-05-07T13:25:44;8.48;;;6.35;;
45392;SDS011;31129;44.810;10.334;2023-05-07T13:28:10;7.05;;;6.20;;
45392;SDS011;31129;44.810;10.334;2023-05-07T13:30:36;11.25;;;6.20;;
45392;SDS011;31129;44.810;10.334;2023-05-07T13:33:01;9.13;;;5.75;;
45392;SDS011;31129;44.810;10.334;2023-05-07T13:35:27;11.57;;;6.22;;
45392;SDS011;31129;44.810;10.334;2023-05-07T13:37:53;6.60;;;5.53;;
45392;SDS011;31129;44.810;10.334;2023-05-07T13:40:20;9.50;;;7.53;;
45392;SDS011;31129;44.810;10.334;2023-05-07T13:42:47;6.88;;;5.85;;
45392;SDS011;31129;44.810;10.334;2023-05-07T13:45:16;8.00;;;5.32;;
45392;SDS011;31129;44.810;10.334;2023-05-07T13:47:42;11.02;;;6.57;;
45392;SDS011;31129;44.810;10.334;2023-05-07T13:50:09;7.25;;;5.13;;
45392;SDS011;31129;44.810;10.334;2023-05-07T13:55:02;6.65;;;4.93;;
45392;SDS011;31129;44.810;10.334;2023-05-07T13:57:27;5.28;;;4.78;;
45392;SDS011;31129;44.810;10.334;2023-05-07T13:59:54;7.50;;;5.18;;
45392;SDS011;31129;44.810;10.334;2023-05-07T14:02:20;6.80;;;5.88;;
45392;SDS011;31129;44.810;10.334;2023-05-07T14:04:46;6.93;;;4.70;;
45392;SDS011;31129;44.810;10.334;2023-05-07T14:07:11;5.40;;;4.25;;
45392;SDS011;31129;44.810;10.334;2023-05-07T14:09:37;8.13;;;5.40;;
45392;SDS011;31129;44.810;10.334;2023-05-07T14:12:02;8.10;;;4.22;;
45392;SDS011;31129;44.810;10.334;2023-05-07T14:14:29;5.45;;;4.25;;
45392;SDS011;31129;44.810;10.334;2023-05-07T14:16:57;6.18;;;4.35;;
45392;SDS011;31129;44.810;10.334;2023-05-07T14:19:22;7.35;;;4.10;;
45392;SDS011;31129;44.810;10.334;2023-05-07T14:21:48;5.90;;;3.92;;
45392;SDS011;31129;44.810;10.334;2023-05-07T14:24:14;6.80;;;4.20;;
45392;SDS011;31129;44.810;10.334;2023-05-07T14:26:40;8.32;;;3.75;;
45392;SDS011;31129;44.810;10.334;2023-05-07T14:29:05;6.07;;;4.88;;
45392;SDS011;31129;44.810;10.334;2023-05-07T14:31:31;7.00;;;4.55;;
45392;SDS011;31129;44.810;10.334;2023-05-07T14:33:57;8.88;;;4.75;;
45392;SDS011;31129;44.810;10.334;2023-05-07T14:36:24;7.97;;;4.05;;
45392;SDS011;31129;44.810;10.334;2023-05-07T14:38:51;6.53;;;2.97;;
45392;SDS011;31129;44.810;10.334;2023-05-07T14:41:19;6.80;;;3.15;;
45392;SDS011;31129;44.810;10.334;2023-05-07T14:43:46;7.40;;;3.30;;
45392;SDS011;31129;44.810;10.334;2023-05-07T14:46:17;5.60;;;3.50;;
45392;SDS011;31129;44.810;10.334;2023-05-07T14:48:45;5.32;;;3.65;;
45392;SDS011;31129;44.810;10.334;2023-05-07T14:51:11;3.72;;;2.88;;
45392;SDS011;31129;44.810;10.334;2023-05-07T14:53:37;5.93;;;3.55;;